Time;durP1;ratioP1;P1;durP2;ratioP2;P2;SDS_P1;SDS_P2;PMS_P1;PMS_P2;Temp;Humidity;BMP_temperature;BMP_pressure;BME280_temperature;BME280_humidity;BME280_pressure;Samples;Min_cycle;Max_cycle;Signal;HPM_P1;HPM_P2
2023/08/06 00:00:41;;;;;;;21.60;19.60;;;14.10;99.90;;;;;;5063801;28;20106;-76
2023/08/06 00:03:07;;;;;;;23.38;21.15;;;14.10;99.90;;;;;;5085924;28;20062;-75
2023/08/06 00:05:35;;;;;;;22.50;20.38;;;14.10;99.90;;;;;;5063800;28;20135;-76
2023/08/06 00:08:02;;;;;;;23.65;21.38;;;14.10;99.90;;;;;;5084783;28;20581;-76
2023/08/06 00:10:28;;;;;;;20.90;18.88;;;14.10;99.90;;;;;;5077166;28;20307;-76
2023/08/06 00:12:54;;;;;;;22.65;20.58;;;14.10;99.90;;;;;;5082808;28;20307;-76
2023/08/06 00:15:19;;;;;;;22.52;20.23;;;14.10;99.90;;;;;;5064552;28;20513;-75
2023/08/06 00:17:45;;;;;;;23.23;20.95;;;14.10;99.90;;;;;;5077484;28;20055;-76
2023/08/06 00:20:14;;;;;;;22.15;20.15;;;14.10;99.90;;;;;;5061517;28;20607;-75
2023/08/06 00:22:40;;;;;;;23.23;21.00;;;14.10;99.90;;;;;;5053208;28;20531;-75
2023/08/06 00:25:06;;;;;;;22.58;20.48;;;14.10;99.90;;;;;;5084367;28;20043;-76
2023/08/06 00:27:34;;;;;;;23.38;21.27;;;14.00;99.90;;;;;;5065492;28;20598;-75
2023/08/06 00:30:00;;;;;;;22.70;20.50;;;14.10;99.90;;;;;;5081016;28;20048;-75
2023/08/06 00:32:26;;;;;;;23.35;21.20;;;14.10;99.90;;;;;;5084606;28;20406;-76
2023/08/06 00:34:55;;;;;;;23.42;21.15;;;14.10;99.90;;;;;;5084410;28;20043;-76
2023/08/06 00:37:21;;;;;;;21.98;19.98;;;14.10;99.90;;;;;;5086753;28;20124;-75
2023/08/06 00:39:46;;;;;;;23.15;20.92;;;14.10;99.90;;;;;;5071453;28;20040;-75
2023/08/06 00:42:16;;;;;;;23.83;21.33;;;14.00;99.90;;;;;;5084939;28;20798;-76
2023/08/06 00:44:41;;;;;;;24.83;22.47;;;14.00;99.90;;;;;;5086847;28;20086;-75
2023/08/06 00:47:08;;;;;;;22.80;20.63;;;14.00;99.90;;;;;;5067624;28;20329;-75
2023/08/06 00:49:35;;;;;;;23.75;21.42;;;14.10;99.90;;;;;;5067568;28;20032;-76
2023/08/06 00:52:02;;;;;;;24.10;21.67;;;14.00;99.90;;;;;;5086236;28;20118;-76
2023/08/06 00:54:29;;;;;;;23.48;21.17;;;14.00;99.90;;;;;;5081874;27;20109;-76
2023/08/06 00:56:55;;;;;;;24.23;22.02;;;14.00;99.90;;;;;;5082912;28;20494;-76
2023/08/06 00:59:21;;;;;;;22.13;20.02;;;14.00;99.90;;;;;;5076377;28;20393;-75
2023/08/06 01:01:47;;;;;;;23.08;20.98;;;14.00;99.90;;;;;;5119984;27;20043;-78
2023/08/06 01:04:16;;;;;;;23.38;21.15;;;14.00;99.90;;;;;;5087161;28;20044;-76
2023/08/06 01:06:52;;;;;;;21.45;19.30;;;14.00;99.90;;;;;;5064838;28;20051;-77
2023/08/06 01:09:48;;;;;;;21.98;19.88;;;14.00;99.90;;;;;;5086498;28;20039;-77
2023/08/06 01:12:21;;;;;;;22.48;20.38;;;14.00;99.90;;;;;;5065889;28;20047;-77
2023/08/06 01:15:18;;;;;;;21.35;19.45;;;14.00;99.90;;;;;;5069045;28;20044;-78
2023/08/06 01:17:45;;;;;;;22.35;20.33;;;14.00;99.90;;;;;;5112478;27;20350;-77
2023/08/06 01:20:11;;;;;;;22.10;19.92;;;14.00;99.90;;;;;;5118139;27;20134;-77
2023/08/06 01:22:37;;;;;;;22.73;20.58;;;14.00;99.90;;;;;;5087372;28;20134;-77
2023/08/06 01:25:03;;;;;;;22.08;19.98;;;14.00;99.90;;;;;;5063449;28;20038;-77
2023/08/06 01:27:38;;;;;;;21.20;19.10;;;14.00;99.90;;;;;;5086604;28;20065;-76
2023/08/06 01:30:16;;;;;;;21.67;19.65;;;14.00;99.90;;;;;;5084580;28;20104;-77
2023/08/06 01:32:44;;;;;;;21.02;19.02;;;14.00;99.90;;;;;;5066528;28;20039;-77
2023/08/06 01:35:13;;;;;;;21.67;19.48;;;14.00;99.90;;;;;;5084346;28;20105;-77
2023/08/06 01:37:41;;;;;;;20.38;18.48;;;14.00;99.90;;;;;;5085809;28;20055;-78
2023/08/06 01:40:11;;;;;;;20.33;18.42;;;14.00;99.90;;;;;;5079968;28;20060;-75
2023/08/06 01:42:40;;;;;;;19.08;17.25;;;14.00;99.90;;;;;;5069890;28;20067;-74
2023/08/06 01:45:10;;;;;;;18.63;16.83;;;14.00;99.90;;;;;;5076528;28;20340;-75
2023/08/06 01:47:36;;;;;;;18.02;16.33;;;13.90;99.90;;;;;;5112425;27;20040;-76
2023/08/06 01:50:03;;;;;;;18.08;16.20;;;13.90;99.90;;;;;;5063069;28;20117;-76
2023/08/06 01:52:28;;;;;;;18.73;16.83;;;13.90;99.90;;;;;;5078013;28;20052;-75
2023/08/06 01:54:55;;;;;;;18.40;16.58;;;13.90;99.90;;;;;;5088702;28;20051;-76
2023/08/06 01:57:21;;;;;;;18.65;16.75;;;13.90;99.90;;;;;;5081507;28;20047;-75
2023/08/06 01:59:47;;;;;;;17.58;15.75;;;13.90;99.90;;;;;;5084856;28;20047;-75
2023/08/06 02:02:12;;;;;;;19.02;17.15;;;13.90;99.90;;;;;;5083618;28;20046;-77
2023/08/06 02:04:38;;;;;;;18.00;16.20;;;13.90;99.90;;;;;;5059675;28;20573;-75
2023/08/06 02:07:09;;;;;;;18.88;16.98;;;13.90;99.90;;;;;;5085927;28;20035;-75
2023/08/06 02:09:35;;;;;;;19.08;17.15;;;13.90;99.90;;;;;;5065495;28;20126;-75
2023/08/06 02:12:02;;;;;;;19.05;17.23;;;13.80;99.90;;;;;;5070065;28;20615;-75
2023/08/06 02:14:28;;;;;;;22.45;17.38;;;13.80;99.90;;;;;;5100685;27;20114;-75
2023/08/06 02:16:53;;;;;;;22.70;20.10;;;13.80;99.90;;;;;;5069556;28;20043;-75
2023/08/06 02:19:19;;;;;;;18.65;16.83;;;13.90;99.90;;;;;;5067405;28;20568;-76
2023/08/06 02:21:45;;;;;;;18.63;16.90;;;13.90;99.90;;;;;;5069524;28;20058;-75
2023/08/06 02:24:14;;;;;;;18.83;17.02;;;13.80;99.90;;;;;;5066858;28;20714;-75
2023/08/06 02:26:39;;;;;;;19.88;17.77;;;13.80;99.90;;;;;;5083789;28;20043;-75
2023/08/06 02:29:05;;;;;;;19.50;17.30;;;13.80;99.90;;;;;;5070195;28;20070;-76
2023/08/06 02:31:31;;;;;;;18.80;17.10;;;13.90;99.90;;;;;;5088527;28;20039;-75
2023/08/06 02:34:00;;;;;;;20.88;18.92;;;13.80;99.90;;;;;;5082351;28;20102;-76
2023/08/06 02:36:29;;;;;;;19.70;17.73;;;13.90;99.90;;;;;;5084843;28;20988;-75
2023/08/06 02:38:55;;;;;;;21.90;18.75;;;13.90;99.90;;;;;;5085607;28;20393;-75
2023/08/06 02:41:21;;;;;;;20.10;17.98;;;13.90;99.90;;;;;;5082809;28;20138;-75
2023/08/06 02:43:46;;;;;;;18.02;16.17;;;13.90;99.90;;;;;;5083517;28;20127;-75
2023/08/06 02:46:12;;;;;;;18.88;17.02;;;13.90;99.90;;;;;;5085533;28;20032;-75
2023/08/06 02:48:41;;;;;;;18.48;16.67;;;13.90;99.90;;;;;;5067397;28;20431;-75
2023/08/06 02:51:07;;;;;;;18.58;16.73;;;13.90;99.90;;;;;;5117759;27;20502;-75
2023/08/06 02:53:32;;;;;;;19.17;17.25;;;13.90;99.90;;;;;;5063456;28;20134;-76
2023/08/06 02:55:58;;;;;;;19.02;17.33;;;13.90;99.90;;;;;;5083953;28;20153;-75
2023/08/06 02:58:24;;;;;;;19.92;18.02;;;13.90;99.90;;;;;;5094984;28;20086;-76
2023/08/06 03:01:05;;;;;;;19.80;17.88;;;13.90;99.90;;;;;;5085563;28;20113;-76
2023/08/06 03:03:31;;;;;;;;;;;14.00;99.90;;;;;;5065356;28;20089;-75
2023/08/06 03:05:57;;;;;;;19.02;17.10;;;13.90;99.90;;;;;;5083035;28;19927;-75
2023/08/06 03:08:22;;;;;;;19.88;17.98;;;13.90;99.90;;;;;;5068222;28;20108;-75
2023/08/06 03:10:49;;;;;;;21.65;19.38;;;13.90;99.90;;;;;;5067302;28;20040;-77
2023/08/06 03:13:18;;;;;;;20.70;18.15;;;13.90;99.90;;;;;;5064871;28;20108;-76
2023/08/06 03:15:53;;;;;;;22.23;20.03;;;13.90;99.90;;;;;;5065052;28;20375;-76
2023/08/06 03:18:19;;;;;;;21.70;19.40;;;13.90;99.90;;;;;;5082902;28;20789;-75
2023/08/06 03:20:45;;;;;;;21.27;19.10;;;13.80;99.90;;;;;;5078650;28;20050;-77
2023/08/06 03:23:10;;;;;;;21.67;19.58;;;13.90;99.90;;;;;;5088251;28;20371;-76
2023/08/06 03:25:37;;;;;;;21.73;19.52;;;13.90;99.90;;;;;;5065704;28;20533;-76
2023/08/06 03:28:06;;;;;;;20.70;18.63;;;13.90;99.90;;;;;;5068893;28;20074;-77
2023/08/06 03:30:32;;;;;;;21.55;19.38;;;13.80;99.90;;;;;;5065387;28;20097;-76
2023/08/06 03:32:57;;;;;;;22.08;19.98;;;13.80;99.90;;;;;;5084329;28;20183;-76
2023/08/06 03:35:23;;;;;;;22.23;19.98;;;13.80;99.90;;;;;;5080433;28;20112;-75
2023/08/06 03:37:49;;;;;;;22.80;20.48;;;13.80;99.90;;;;;;5086562;28;20047;-75
2023/08/06 03:40:18;;;;;;;23.50;21.13;;;13.80;99.90;;;;;;5117238;27;20051;-75
2023/08/06 03:42:44;;;;;;;22.40;20.30;;;13.70;99.90;;;;;;5096910;28;20071;-76
2023/08/06 03:45:10;;;;;;;22.67;20.35;;;13.80;99.90;;;;;;5066067;28;20467;-75
2023/08/06 03:47:35;;;;;;;23.05;20.83;;;13.80;99.90;;;;;;5064864;28;20040;-76
2023/08/06 03:50:01;;;;;;;22.73;20.60;;;13.70;99.90;;;;;;5081648;28;20582;-75
2023/08/06 03:52:27;;;;;;;24.58;22.13;;;13.80;99.90;;;;;;5087450;28;20135;-75
2023/08/06 03:54:53;;;;;;;24.52;22.23;;;13.70;99.90;;;;;;5083066;28;20387;-75
2023/08/06 03:57:19;;;;;;;24.23;21.83;;;13.70;99.90;;;;;;5064640;28;20047;-76
2023/08/06 03:59:44;;;;;;;25.88;23.27;;;13.70;99.90;;;;;;5080933;28;20040;-76
2023/08/06 04:02:10;;;;;;;24.00;21.60;;;13.70;99.90;;;;;;5084768;28;20047;-76
2023/08/06 04:04:36;;;;;;;23.83;21.48;;;13.70;99.90;;;;;;5075962;28;20035;-76
2023/08/06 04:07:02;;;;;;;24.48;22.08;;;13.70;99.90;;;;;;5064619;28;20043;-77
2023/08/06 04:09:31;;;;;;;24.33;22.02;;;13.70;99.90;;;;;;5113687;27;20032;-77
2023/08/06 04:11:58;;;;;;;24.67;22.33;;;13.60;99.90;;;;;;5084707;28;20087;-77
2023/08/06 04:14:26;;;;;;;25.30;22.80;;;13.60;99.90;;;;;;5082956;28;20048;-76
2023/08/06 04:16:51;;;;;;;23.80;21.52;;;13.60;99.90;;;;;;5082123;28;20040;-77
2023/08/06 04:19:17;;;;;;;24.75;22.25;;;13.60;99.90;;;;;;5115818;27;20059;-76
2023/08/06 04:21:43;;;;;;;28.10;25.10;;;13.60;99.90;;;;;;5065565;28;20055;-77
2023/08/06 04:24:09;;;;;;;29.52;26.17;;;13.60;99.90;;;;;;5114136;27;20039;-77
2023/08/06 04:26:35;;;;;;;21.63;19.65;;;13.70;99.90;;;;;;5069108;28;20436;-77
2023/08/06 04:29:00;;;;;;;25.75;23.15;;;13.70;99.90;;;;;;5081241;28;20040;-76
2023/08/06 04:31:26;;;;;;;22.73;20.52;;;13.70;99.90;;;;;;5079681;28;20135;-78
2023/08/06 04:33:52;;;;;;;24.63;22.20;;;13.70;99.90;;;;;;5062006;28;20496;-76
2023/08/06 04:36:18;;;;;;;24.27;21.85;;;13.70;99.90;;;;;;5064225;28;20058;-78
2023/08/06 04:38:45;;;;;;;23.02;20.65;;;13.70;99.90;;;;;;5084785;28;20094;-76
2023/08/06 04:41:11;;;;;;;24.80;22.50;;;13.70;99.90;;;;;;5081876;28;20043;-77
2023/08/06 04:43:37;;;;;;;22.55;20.35;;;13.80;99.90;;;;;;5065922;28;20043;-76
2023/08/06 04:46:06;;;;;;;24.08;21.67;;;13.80;99.90;;;;;;5066450;28;20040;-76
2023/08/06 04:48:32;;;;;;;26.45;23.75;;;13.80;99.90;;;;;;5073059;28;20174;-76
2023/08/06 04:50:57;;;;;;;23.75;21.55;;;13.80;99.90;;;;;;5082290;28;20464;-77
2023/08/06 04:53:23;;;;;;;25.05;22.55;;;13.80;99.90;;;;;;5058187;28;20047;-77
2023/08/06 04:55:49;;;;;;;24.10;21.70;;;13.90;99.90;;;;;;5080706;28;20040;-76
2023/08/06 04:58:14;;;;;;;23.48;21.17;;;13.90;99.90;;;;;;5078960;28;21496;-76
2023/08/06 05:00:40;;;;;;;26.52;23.75;;;13.90;99.90;;;;;;5078527;28;20115;-77
2023/08/06 05:03:06;;;;;;;25.30;22.90;;;13.90;99.90;;;;;;5078974;28;20119;-77
2023/08/06 05:05:32;;;;;;;25.17;22.90;;;13.90;99.90;;;;;;5080865;28;20037;-76
2023/08/06 05:07:58;;;;;;;24.17;21.77;;;13.90;99.90;;;;;;5082437;28;20044;-76
2023/08/06 05:10:27;;;;;;;25.60;22.98;;;13.90;99.90;;;;;;5076329;28;20558;-76
2023/08/06 05:12:53;;;;;;;23.52;21.08;;;13.90;99.90;;;;;;5078700;28;20550;-77
2023/08/06 05:15:22;;;;;;;24.52;22.10;;;13.90;99.90;;;;;;5063356;28;20048;-76
2023/08/06 05:17:47;;;;;;;35.58;30.08;;;13.90;99.90;;;;;;5064609;28;20051;-76
2023/08/06 05:20:13;;;;;;;24.27;21.92;;;13.90;99.90;;;;;;5062086;28;20406;-76
2023/08/06 05:22:39;;;;;;;26.45;23.95;;;13.90;99.90;;;;;;5083927;28;20044;-76
2023/08/06 05:25:06;;;;;;;27.13;24.33;;;14.00;99.90;;;;;;5066811;28;20040;-76
2023/08/06 05:27:32;;;;;;;24.80;22.17;;;14.00;99.90;;;;;;5080172;28;20071;-75
2023/08/06 05:29:57;;;;;;;24.00;21.65;;;14.00;99.90;;;;;;5080806;28;20040;-75
2023/08/06 05:32:23;;;;;;;24.80;22.48;;;14.10;99.90;;;;;;5081187;28;20050;-75
2023/08/06 05:34:49;;;;;;;25.02;22.73;;;14.10;99.90;;;;;;5080764;28;20510;-76
2023/08/06 05:37:15;;;;;;;25.38;22.75;;;14.10;99.90;;;;;;5064566;28;20045;-75
2023/08/06 05:39:40;;;;;;;24.70;22.30;;;14.20;99.90;;;;;;5065657;28;20052;-75
2023/08/06 05:42:06;;;;;;;24.33;22.13;;;14.20;99.90;;;;;;5061291;28;20067;-76
2023/08/06 05:44:32;;;;;;;24.95;22.75;;;14.20;99.90;;;;;;5065294;28;20075;-75
2023/08/06 05:46:58;;;;;;;24.25;22.13;;;14.30;99.90;;;;;;5083101;28;20072;-75
2023/08/06 05:49:24;;;;;;;24.58;22.23;;;14.30;99.90;;;;;;5083453;28;20064;-76
2023/08/06 05:51:49;;;;;;;27.27;24.73;;;14.40;99.90;;;;;;5083689;28;20044;-76
2023/08/06 05:54:15;;;;;;;24.80;22.60;;;14.40;99.90;;;;;;5080660;28;20042;-76
2023/08/06 05:56:41;;;;;;;23.35;21.20;;;14.40;99.90;;;;;;5064507;28;20098;-75
2023/08/06 05:59:07;;;;;;;25.02;22.80;;;14.50;99.90;;;;;;5080348;28;20039;-75
2023/08/06 06:01:36;;;;;;;24.30;22.20;;;14.50;99.90;;;;;;5079009;28;20043;-75
2023/08/06 06:04:01;;;;;;;25.38;23.10;;;14.50;99.90;;;;;;5081379;28;20048;-75
2023/08/06 06:06:27;;;;;;;24.67;22.42;;;14.50;99.90;;;;;;5081241;28;20042;-75
2023/08/06 06:08:53;;;;;;;25.60;23.40;;;14.50;99.90;;;;;;5078862;28;20917;-75
2023/08/06 06:11:22;;;;;;;26.70;24.08;;;14.60;99.90;;;;;;5079640;28;20046;-75
2023/08/06 06:13:50;;;;;;;24.77;22.70;;;14.60;99.90;;;;;;5063221;28;20071;-75
2023/08/06 06:16:16;;;;;;;25.05;22.85;;;14.70;99.90;;;;;;5065757;28;20044;-76
2023/08/06 06:18:42;;;;;;;26.60;24.15;;;14.70;99.90;;;;;;5062321;28;20052;-76
2023/08/06 06:21:11;;;;;;;26.05;23.88;;;14.70;99.90;;;;;;5084494;28;20043;-76
2023/08/06 06:23:36;;;;;;;26.00;23.75;;;14.70;99.90;;;;;;5064134;28;20874;-76
2023/08/06 06:26:02;;;;;;;26.05;23.75;;;14.70;99.90;;;;;;5081195;28;20064;-76
2023/08/06 06:28:28;;;;;;;26.35;24.05;;;14.70;99.90;;;;;;5079128;28;20052;-76
2023/08/06 06:30:59;;;;;;;26.58;24.15;;;14.70;99.90;;;;;;5079594;28;20056;-75
2023/08/06 06:33:25;;;;;;;25.02;22.92;;;14.70;99.90;;;;;;5080280;28;20040;-76
2023/08/06 06:35:51;;;;;;;28.45;25.77;;;14.70;99.90;;;;;;5064374;28;20062;-74
2023/08/06 06:38:16;;;;;;;26.42;24.13;;;14.70;99.90;;;;;;5081112;28;20449;-76
2023/08/06 06:40:42;;;;;;;25.48;23.15;;;14.70;99.90;;;;;;5081215;28;20067;-76
2023/08/06 06:43:08;;;;;;;26.75;24.33;;;14.70;99.90;;;;;;5084038;28;20105;-75
2023/08/06 06:45:34;;;;;;;22.88;20.88;;;14.70;99.90;;;;;;5066737;28;20032;-76
2023/08/06 06:48:00;;;;;;;25.45;23.15;;;14.70;99.90;;;;;;5067715;28;20089;-76
2023/08/06 06:50:26;;;;;;;25.67;23.38;;;14.70;99.90;;;;;;5061863;28;20094;-75
2023/08/06 06:52:52;;;;;;;25.17;23.02;;;14.70;99.90;;;;;;5080141;28;20044;-75
2023/08/06 06:55:17;;;;;;;24.20;22.10;;;14.80;99.90;;;;;;5081302;28;20043;-76
2023/08/06 06:57:43;;;;;;;25.67;23.55;;;14.80;99.90;;;;;;5081645;28;20085;-76
2023/08/06 07:00:09;;;;;;;25.30;23.10;;;14.80;99.90;;;;;;5077711;28;20598;-76
2023/08/06 07:02:35;;;;;;;22.88;20.98;;;14.80;99.90;;;;;;5081996;28;20174;-76
2023/08/06 07:05:01;;;;;;;23.92;21.92;;;14.90;99.90;;;;;;5077433;28;20158;-76
2023/08/06 07:07:26;;;;;;;26.27;23.98;;;14.80;99.90;;;;;;5081046;28;20065;-76
2023/08/06 07:09:52;;;;;;;21.52;19.70;;;14.90;99.90;;;;;;5063754;28;20511;-76
2023/08/06 07:12:18;;;;;;;24.05;22.05;;;14.90;99.90;;;;;;5079428;28;20071;-76
2023/08/06 07:14:44;;;;;;;25.27;23.13;;;14.90;99.90;;;;;;5074990;28;20048;-76
2023/08/06 07:17:10;;;;;;;25.00;22.88;;;14.90;99.90;;;;;;5062847;28;20427;-76
2023/08/06 07:19:35;;;;;;;23.63;21.52;;;14.90;99.90;;;;;;5077655;28;20048;-75
2023/08/06 07:22:01;;;;;;;22.85;20.85;;;14.90;99.90;;;;;;5080551;28;20071;-75
2023/08/06 07:24:27;;;;;;;22.92;20.92;;;14.90;99.90;;;;;;5065585;28;20449;-74
2023/08/06 07:26:52;;;;;;;25.58;23.42;;;15.00;99.90;;;;;;5078135;28;20040;-75
2023/08/06 07:29:21;;;;;;;23.42;21.58;;;15.00;99.90;;;;;;5080817;28;20071;-75
2023/08/06 07:31:47;;;;;;;21.42;19.63;;;15.00;99.90;;;;;;5077264;28;20063;-75
2023/08/06 07:34:13;;;;;;;21.95;20.15;;;15.00;99.90;;;;;;5061148;28;20040;-74
2023/08/06 07:36:39;;;;;;;23.73;21.60;;;15.10;99.90;;;;;;5077852;28;20051;-75
2023/08/06 07:39:06;;;;;;;23.65;21.60;;;15.10;99.90;;;;;;5059829;28;20064;-75
2023/08/06 07:41:32;;;;;;;22.17;20.23;;;15.20;99.90;;;;;;5061206;28;20036;-74
2023/08/06 07:43:57;;;;;;;20.38;18.73;;;15.20;99.90;;;;;;5077743;28;20036;-75
2023/08/06 07:46:23;;;;;;;20.75;19.13;;;15.20;99.90;;;;;;5078086;28;20048;-75
2023/08/06 07:48:49;;;;;;;21.50;19.63;;;15.30;99.90;;;;;;5082853;28;20055;-74
2023/08/06 07:51:15;;;;;;;20.85;19.15;;;15.30;99.90;;;;;;5079688;28;20119;-75
2023/08/06 07:53:41;;;;;;;19.15;17.30;;;15.30;99.90;;;;;;5081909;28;20245;-74
2023/08/06 07:56:06;;;;;;;18.58;17.17;;;15.40;99.90;;;;;;5084372;28;20485;-75
2023/08/06 07:58:35;;;;;;;18.70;17.05;;;15.40;99.90;;;;;;5059068;28;20335;-74
2023/08/06 08:01:01;;;;;;;20.10;18.40;;;15.50;99.90;;;;;;5118458;27;20039;-75
2023/08/06 08:03:30;;;;;;;19.83;18.13;;;15.50;99.90;;;;;;5063027;28;20768;-75
2023/08/06 08:05:57;;;;;;;19.55;17.80;;;15.50;99.90;;;;;;5065826;28;20075;-75
2023/08/06 08:08:23;;;;;;;19.60;18.02;;;15.60;99.90;;;;;;5081917;28;20048;-75
2023/08/06 08:10:49;;;;;;;19.33;17.63;;;15.60;99.90;;;;;;5084738;28;20039;-75
2023/08/06 08:13:15;;;;;;;18.55;17.02;;;15.70;99.90;;;;;;5083364;28;20047;-74
2023/08/06 08:15:41;;;;;;;17.05;15.75;;;15.80;99.90;;;;;;5083986;28;20048;-75
2023/08/06 08:18:07;;;;;;;18.00;16.40;;;15.80;99.90;;;;;;5067446;28;20047;-74
2023/08/06 08:20:35;;;;;;;16.23;14.93;;;15.80;99.90;;;;;;5067916;28;20493;-74
2023/08/06 08:23:01;;;;;;;15.88;14.68;;;15.90;99.90;;;;;;5081114;28;20104;-75
2023/08/06 08:25:31;;;;;;;17.08;15.60;;;15.90;99.90;;;;;;5065853;28;20494;-74
2023/08/06 08:27:57;;;;;;;15.25;14.05;;;15.90;99.90;;;;;;5100324;28;20075;-74
2023/08/06 08:30:24;;;;;;;15.73;14.27;;;16.00;99.90;;;;;;5066138;28;20071;-74
2023/08/06 08:32:50;;;;;;;15.38;14.18;;;16.00;99.90;;;;;;5067967;28;20040;-74
2023/08/06 08:35:17;;;;;;;15.15;13.85;;;16.10;99.90;;;;;;5083354;28;20533;-74
2023/08/06 08:37:43;;;;;;;15.32;13.73;;;16.10;99.90;;;;;;5082799;28;20040;-74
2023/08/06 08:40:09;;;;;;;16.40;15.05;;;16.20;99.90;;;;;;5079485;28;20418;-75
2023/08/06 08:42:36;;;;;;;14.90;13.65;;;16.20;99.90;;;;;;5080292;28;20036;-75
2023/08/06 08:45:04;;;;;;;15.20;13.95;;;16.30;99.90;;;;;;5079784;28;20043;-75
2023/08/06 08:47:31;;;;;;;14.70;13.40;;;16.30;99.90;;;;;;5081456;28;20043;-74
2023/08/06 08:49:58;;;;;;;14.02;12.82;;;16.40;99.90;;;;;;5083715;28;20117;-74
2023/08/06 08:52:27;;;;;;;14.32;13.23;;;16.40;99.90;;;;;;5079389;28;20040;-74
2023/08/06 08:54:54;;;;;;;15.83;14.53;;;16.50;99.90;;;;;;5068916;28;20047;-75
2023/08/06 08:57:23;;;;;;;15.85;14.55;;;16.60;99.90;;;;;;5081288;28;20032;-76
2023/08/06 08:59:48;;;;;;;14.30;13.10;;;16.60;99.90;;;;;;5084312;28;20079;-75
2023/08/06 09:02:16;;;;;;;14.63;13.43;;;16.70;99.90;;;;;;5072146;28;20079;-75
2023/08/06 09:04:44;;;;;;;18.52;16.83;;;16.70;99.90;;;;;;5086607;28;20047;-75
2023/08/06 09:07:13;;;;;;;12.23;11.23;;;16.70;99.90;;;;;;5084394;28;20573;-75
2023/08/06 09:09:40;;;;;;;12.40;11.37;;;16.80;99.90;;;;;;5087196;28;20461;-75
2023/08/06 09:12:14;;;;;;;12.38;11.25;;;16.80;99.90;;;;;;5082463;28;20391;-75
2023/08/06 09:14:41;;;;;;;11.40;10.40;;;16.80;99.90;;;;;;5086949;28;20486;-75
2023/08/06 09:17:13;;;;;;;12.20;11.10;;;16.90;99.90;;;;;;5068453;28;20059;-75
2023/08/06 09:19:45;;;;;;;13.80;12.60;;;16.90;99.90;;;;;;5120391;27;20043;-75
2023/08/06 09:22:13;;;;;;;13.23;12.13;;;17.10;99.90;;;;;;5068979;28;20126;-75
2023/08/06 09:24:41;;;;;;;12.60;11.40;;;17.10;99.90;;;;;;5085446;28;20473;-75
2023/08/06 09:27:12;;;;;;;13.25;12.15;;;17.10;99.90;;;;;;5086516;28;20413;-76
2023/08/06 09:29:41;;;;;;;11.70;9.80;;;17.20;99.90;;;;;;5086526;28;20079;-75
2023/08/06 09:32:10;;;;;;;13.55;12.40;;;17.20;99.90;;;;;;5064689;27;20040;-75
2023/08/06 09:34:39;;;;;;;12.93;11.82;;;17.20;99.90;;;;;;5082952;28;20062;-75
2023/08/06 09:37:05;;;;;;;12.75;11.65;;;17.30;99.90;;;;;;5085545;28;20396;-75
2023/08/06 09:39:31;;;;;;;10.95;10.07;;;17.30;99.90;;;;;;5084646;28;20139;-75
2023/08/06 09:41:58;;;;;;;9.75;8.93;;;17.30;99.90;;;;;;5083107;28;20051;-75
2023/08/06 09:44:26;;;;;;;10.75;9.75;;;17.40;99.90;;;;;;5085185;28;20048;-75
2023/08/06 09:46:57;;;;;;;10.73;9.77;;;17.50;99.90;;;;;;5121769;27;20043;-75
2023/08/06 09:49:26;;;;;;;10.88;9.77;;;17.50;99.90;;;;;;5069028;28;20044;-75
2023/08/06 09:51:55;;;;;;;12.00;10.85;;;17.60;99.90;;;;;;5070704;28;20126;-76
2023/08/06 09:54:23;;;;;;;11.52;10.55;;;17.70;99.90;;;;;;5081835;28;20047;-75
2023/08/06 09:56:49;;;;;;;9.35;8.65;;;17.80;99.90;;;;;;5067199;28;20099;-75
2023/08/06 09:59:15;;;;;;;10.48;9.57;;;17.80;99.90;;;;;;5085243;28;20409;-75
2023/08/06 10:01:41;;;;;;;10.07;9.23;;;17.90;99.90;;;;;;5081912;28;20048;-75
2023/08/06 10:04:08;;;;;;;9.95;9.15;;;18.00;99.90;;;;;;5069968;28;20035;-75
2023/08/06 10:06:37;;;;;;;10.02;9.00;;;18.10;99.90;;;;;;5080161;28;20036;-75
2023/08/06 10:09:08;;;;;;;8.85;8.05;;;18.20;99.90;;;;;;5065225;28;20201;-75
2023/08/06 10:11:36;;;;;;;8.65;7.95;;;18.30;99.90;;;;;;5083251;28;20097;-75
2023/08/06 10:14:15;;;;;;;9.30;8.40;;;18.30;99.90;;;;;;5083769;27;20055;-75
2023/08/06 10:16:42;;;;;;;7.82;7.18;;;18.50;99.90;;;;;;5115346;27;20397;-75
2023/08/06 10:19:12;;;;;;;8.20;7.40;;;18.60;99.90;;;;;;5083365;28;20048;-75
2023/08/06 10:21:40;;;;;;;7.43;6.72;;;18.60;99.90;;;;;;5081404;28;20039;-76
2023/08/06 10:24:14;;;;;;;7.53;6.82;;;18.60;99.90;;;;;;5115640;27;20040;-76
2023/08/06 10:26:40;;;;;;;5.70;4.78;;;18.60;99.90;;;;;;5064433;28;20039;-75
2023/08/06 10:29:37;;;;;;;5.90;4.40;;;18.70;99.90;;;;;;5078173;28;20044;-76
2023/08/06 10:32:05;;;;;;;5.53;2.90;;;18.80;99.90;;;;;;5065467;28;20040;-75
2023/08/06 10:34:56;;;;;;;4.18;3.10;;;18.80;99.90;;;;;;5066410;28;20042;-75
2023/08/06 10:37:23;;;;;;;3.85;3.15;;;18.80;99.90;;;;;;5097687;28;20544;-75
2023/08/06 10:39:52;;;;;;;3.58;2.83;;;18.90;99.90;;;;;;5066145;28;20193;-74
2023/08/06 10:42:29;;;;;;;5.00;3.33;;;19.00;99.90;;;;;;5066281;28;20542;-75
2023/08/06 10:45:15;;;;;;;4.97;3.30;;;19.00;99.90;;;;;;5067604;28;20044;-75
2023/08/06 10:47:45;;;;;;;4.00;2.80;;;19.10;99.90;;;;;;5065348;28;20052;-74
2023/08/06 10:50:19;;;;;;;5.70;3.42;;;19.20;99.90;;;;;;5078492;28;20785;-74
2023/08/06 10:52:46;;;;;;;3.95;3.10;;;19.30;99.90;;;;;;5114295;27;20044;-74
2023/08/06 10:55:22;;;;;;;4.25;2.97;;;19.50;99.90;;;;;;5080079;28;20079;-74
2023/08/06 10:57:48;;;;;;;4.40;2.80;;;19.60;99.90;;;;;;5112652;27;20494;-75
2023/08/06 11:00:14;;;;;;;3.85;2.50;;;19.70;99.90;;;;;;5065433;28;20081;-74
2023/08/06 11:02:41;;;;;;;6.45;3.22;;;19.80;99.90;;;;;;5064995;28;20039;-75
2023/08/06 11:05:08;;;;;;;6.00;3.42;;;19.90;99.90;;;;;;5082065;28;20410;-74
2023/08/06 11:07:38;;;;;;;3.28;2.50;;;19.90;99.90;;;;;;5060722;28;20065;-75
2023/08/06 11:10:06;;;;;;;4.75;2.88;;;19.80;99.90;;;;;;5079103;28;20044;-75
2023/08/06 11:12:32;;;;;;;3.03;2.40;;;19.80;99.90;;;;;;5062691;28;20063;-74
2023/08/06 11:14:58;;;;;;;2.90;2.28;;;19.70;99.90;;;;;;5066305;28;20048;-75
2023/08/06 11:17:25;;;;;;;2.70;2.20;;;19.60;99.90;;;;;;5060759;28;20067;-75
2023/08/06 11:19:52;;;;;;;2.90;2.40;;;19.60;99.90;;;;;;5081059;28;20048;-75
2023/08/06 11:22:18;;;;;;;3.53;2.15;;;19.50;99.90;;;;;;5061211;28;20059;-75
2023/08/06 11:24:44;;;;;;;4.75;2.70;;;19.50;99.90;;;;;;5079944;28;20048;-75
2023/08/06 11:27:16;;;;;;;3.20;2.38;;;19.50;99.90;;;;;;5081881;28;20075;-75
2023/08/06 11:29:43;;;;;;;3.50;2.55;;;19.40;99.90;;;;;;5080746;28;20032;-76
2023/08/06 11:32:10;;;;;;;4.60;2.60;;;19.40;99.90;;;;;;5076610;28;20086;-75
2023/08/06 11:34:37;;;;;;;4.35;2.80;;;19.30;99.90;;;;;;5064687;28;20072;-75
2023/08/06 11:37:06;;;;;;;4.10;2.72;;;19.30;99.90;;;;;;5076231;28;20040;-76
2023/08/06 11:39:33;;;;;;;4.03;2.47;;;19.30;99.90;;;;;;5092849;28;20445;-76
2023/08/06 11:42:02;;;;;;;4.40;2.47;;;19.30;99.90;;;;;;5060863;28;20053;-76
2023/08/06 11:44:31;;;;;;;3.28;2.42;;;19.30;99.90;;;;;;5077231;28;20079;-76
2023/08/06 11:47:01;;;;;;;3.33;2.15;;;19.30;99.90;;;;;;5079433;28;20055;-76
2023/08/06 11:49:44;;;;;;;3.28;2.20;;;19.30;99.90;;;;;;5063828;28;20051;-76
2023/08/06 11:52:13;;;;;;;5.93;2.50;;;19.30;99.90;;;;;;5112393;27;20047;-76
2023/08/06 11:54:38;;;;;;;4.43;2.20;;;19.40;99.90;;;;;;5081417;28;20085;-76
2023/08/06 11:57:08;;;;;;;2.75;1.85;;;19.40;99.90;;;;;;5065005;28;20075;-76
2023/08/06 11:59:34;;;;;;;5.78;2.15;;;19.50;99.90;;;;;;5063129;28;20474;-75
2023/08/06 12:02:02;;;;;;;4.50;2.22;;;19.50;99.90;;;;;;5113752;27;20054;-75
2023/08/06 12:04:28;;;;;;;3.10;2.30;;;19.50;99.90;;;;;;5066378;28;20545;-76
2023/08/06 12:06:54;;;;;;;3.60;2.13;;;19.50;99.90;;;;;;5082074;28;20035;-76
2023/08/06 12:09:20;;;;;;;5.22;2.30;;;19.50;99.90;;;;;;5063589;28;20043;-79
2023/08/06 12:11:46;;;;;;;3.45;1.98;;;19.60;99.90;;;;;;5081599;28;20042;-75
2023/08/06 12:14:12;;;;;;;4.32;2.10;;;19.70;99.90;;;;;;5063029;28;20056;-75
2023/08/06 12:16:38;;;;;;;2.95;1.95;;;19.60;99.90;;;;;;5080894;28;20073;-77
2023/08/06 12:19:04;;;;;;;3.25;2.10;;;19.70;99.90;;;;;;5064721;28;20123;-76
2023/08/06 12:21:30;;;;;;;4.38;2.15;;;19.70;99.90;;;;;;5081265;28;20536;-76
2023/08/06 12:23:55;;;;;;;4.50;2.30;;;19.80;99.90;;;;;;5065193;28;20048;-76
2023/08/06 12:26:21;;;;;;;3.33;2.03;;;19.80;99.90;;;;;;5081924;28;20048;-76
2023/08/06 12:28:49;;;;;;;3.40;2.13;;;19.80;99.90;;;;;;5081439;28;20059;-76
2023/08/06 12:31:15;;;;;;;4.38;2.42;;;19.90;99.90;;;;;;5084404;28;20062;-76